Time;durP1;ratioP1;P1;durP2;ratioP2;P2;SDS_P1;SDS_P2;PMS_P1;PMS_P2;Temp;Humidity;BMP_temperature;BMP_pressure;BME280_temperature;BME280_humidity;BME280_pressure;Samples;Min_cycle;Max_cycle;Signal;HPM_P1;HPM_P2
2021/03/02 00:00:09;;;;;;;38.10;24.92;;;;;;;4.34;59.69;96163.56;5088610;23;20033;-71
2021/03/02 00:02:14;;;;;;;39.65;24.55;;;;;;;4.35;59.57;96166.09;5112109;23;20028;-70
2021/03/02 00:04:17;;;;;;;40.92;25.42;;;;;;;4.36;59.32;96167.75;5064862;23;20459;-71
2021/03/02 00:06:18;;;;;;;39.13;23.95;;;;;;;4.37;59.18;96171.19;5113610;23;20025;-74
2021/03/02 00:08:20;;;;;;;35.60;24.25;;;;;;;4.36;59.15;96172.09;5087795;23;20049;-71
2021/03/02 00:10:22;;;;;;;39.90;25.23;;;;;;;4.18;59.81;96184.34;5087399;23;20060;-71
2021/03/02 00:12:24;;;;;;;39.72;25.63;;;;;;;4.07;60.23;96171.97;5088567;23;20028;-70
2021/03/02 00:14:25;;;;;;;39.53;25.42;;;;;;;4.05;60.50;96179.81;5088217;23;20546;-70
2021/03/02 00:16:27;;;;;;;40.25;25.75;;;;;;;3.99;60.60;96185.31;5061587;23;20026;-71
2021/03/02 00:18:34;;;;;;;40.83;24.38;;;;;;;3.98;60.78;96175.88;5112713;23;20060;-71
2021/03/02 00:20:36;;;;;;;38.58;24.88;;;;;;;4.03;60.27;96173.88;5088888;23;20031;-69
2021/03/02 00:23:04;;;;;;;40.90;25.45;;;;;;;4.12;60.21;96161.34;5110809;23;20021;-71
2021/03/02 00:25:05;;;;;;;35.05;24.23;;;;;;;4.11;60.10;96160.50;5139135;23;20103;-71
2021/03/02 00:27:11;;;;;;;38.75;23.75;;;;;;;4.10;60.06;96157.03;5111914;23;20362;-70
2021/03/02 00:29:12;;;;;;;39.03;25.00;;;;;;;4.00;60.90;96161.09;5117070;23;20025;-85
2021/03/02 00:31:14;;;;;;;42.67;24.67;;;;;;;3.72;61.34;96171.22;5117520;23;20046;-83
2021/03/02 00:33:15;;;;;;;39.38;26.05;;;;;;;3.72;61.55;96166.88;5143908;23;20479;-84
2021/03/02 00:35:17;;;;;;;42.22;24.77;;;;;;;3.78;61.52;96158.78;5116886;23;20484;-84
2021/03/02 00:37:18;;;;;;;40.38;25.83;;;;;;;3.76;61.83;96159.78;5117713;23;20104;-84
2021/03/02 00:39:19;;;;;;;42.15;26.25;;;;;;;3.77;61.93;96153.69;5116428;23;20029;-83
2021/03/02 00:41:21;;;;;;;38.25;24.65;;;;;;;3.69;61.53;96152.34;5142620;23;20021;-85
2021/03/02 00:43:22;;;;;;;37.35;24.45;;;;;;;3.66;61.93;96157.69;5092808;23;20021;-83
2021/03/02 00:45:23;;;;;;;35.40;23.30;;;;;;;3.60;62.25;96162.38;5142862;23;20056;-85
2021/03/02 00:47:24;;;;;;;39.63;23.65;;;;;;;3.54;62.46;96162.69;5143611;23;20025;-83
2021/03/02 00:49:26;;;;;;;34.85;22.48;;;;;;;3.47;62.42;96156.97;5143212;23;20556;-83
2021/03/02 00:51:27;;;;;;;38.40;21.73;;;;;;;3.47;62.66;96156.97;5117022;23;20084;-83
2021/03/02 00:53:28;;;;;;;32.38;20.08;;;;;;;3.61;62.00;96162.25;5147925;23;20024;-86
2021/03/02 00:55:30;;;;;;;33.20;20.20;;;;;;;3.56;62.63;96151.31;5108092;23;20010;-82
2021/03/02 00:57:31;;;;;;;31.05;20.55;;;;;;;3.64;62.20;96156.09;5118888;23;20062;-85
2021/03/02 00:59:32;;;;;;;37.60;20.95;;;;;;;3.67;62.22;96150.75;5117054;23;20028;-83
2021/03/02 01:01:34;;;;;;;27.17;18.63;;;;;;;3.64;62.43;96158.69;5114939;23;20069;-83
2021/03/02 01:03:35;;;;;;;29.80;18.60;;;;;;;3.62;62.22;96152.75;5115899;23;20546;-84
2021/03/02 01:05:37;;;;;;;32.00;19.58;;;;;;;3.68;61.94;96142.06;5116562;23;20103;-85
2021/03/02 01:07:38;;;;;;;39.50;23.20;;;;;;;3.74;61.69;96152.09;5116890;23;20548;-84
2021/03/02 01:09:39;;;;;;;36.22;23.38;;;;;;;3.81;61.69;96139.66;5116668;23;20051;-82
2021/03/02 01:11:40;;;;;;;39.33;23.48;;;;;;;3.84;61.47;96148.09;5115811;23;20076;-83
2021/03/02 01:13:42;;;;;;;37.88;24.55;;;;;;;3.85;61.07;96135.94;5142723;23;20055;-84
2021/03/02 01:15:43;;;;;;;34.88;22.52;;;;;;;3.88;61.32;96143.59;5142536;23;20095;-84
2021/03/02 01:17:44;;;;;;;33.72;22.15;;;;;;;3.88;61.58;96147.00;5116090;23;20079;-83
2021/03/02 01:19:46;;;;;;;39.78;23.65;;;;;;;3.94;60.92;96151.03;5143326;23;20086;-83
2021/03/02 01:21:48;;;;;;;37.22;23.15;;;;;;;3.92;61.12;96142.50;5092919;23;20025;-84
2021/03/02 01:23:49;;;;;;;37.47;22.58;;;;;;;3.94;60.83;96137.25;5091923;23;20021;-84
2021/03/02 01:25:50;;;;;;;32.33;20.95;;;;;;;3.94;61.28;96143.25;5142126;23;20028;-83
2021/03/02 01:27:51;;;;;;;31.02;19.92;;;;;;;3.96;61.20;96133.66;5092733;23;20088;-84
2021/03/02 01:29:53;;;;;;;32.08;20.98;;;;;;;4.04;60.44;96136.66;5116346;23;20411;-85
2021/03/02 01:31:54;;;;;;;31.23;20.38;;;;;;;4.02;60.89;96129.84;5115807;23;20021;-84
2021/03/02 01:33:55;;;;;;;31.58;20.10;;;;;;;4.03;60.43;96124.59;5142660;23;20354;-83
2021/03/02 01:35:57;;;;;;;28.77;19.83;;;;;;;4.04;60.26;96121.09;5142758;23;20518;-84
2021/03/02 01:37:58;;;;;;;32.20;20.63;;;;;;;4.03;60.80;96124.59;5142817;23;20244;-85
2021/03/02 01:40:00;;;;;;;31.65;20.92;;;;;;;4.04;60.58;96123.69;5116314;23;20017;-84
2021/03/02 01:42:01;;;;;;;30.30;20.15;;;;;;;4.07;60.33;96123.50;5118261;23;20060;-84
2021/03/02 01:44:03;;;;;;;29.60;20.42;;;;;;;4.05;60.08;96125.34;5118127;23;20032;-83
2021/03/02 01:46:05;;;;;;;33.63;21.33;;;;;;;3.95;60.87;96133.72;5146506;23;20024;-82
2021/03/02 01:48:07;;;;;;;32.28;20.60;;;;;;;3.74;61.29;96133.13;5101552;23;20045;-82
2021/03/02 01:50:10;;;;;;;30.23;19.40;;;;;;;3.19;62.82;96134.25;5121460;23;20025;-84
2021/03/02 01:52:12;;;;;;;30.70;18.83;;;;;;;1.88;66.82;96132.84;5118057;23;20025;-82
2021/03/02 01:54:14;;;;;;;28.33;18.50;;;;;;;1.81;67.67;96134.06;5143996;23;20055;-84
2021/03/02 01:56:15;;;;;;;30.70;18.45;;;;;;;1.82;67.78;96133.97;5144851;23;20024;-85
2021/03/02 01:58:16;;;;;;;30.30;18.63;;;;;;;1.93;67.71;96137.81;5143849;23;20056;-85
2021/03/02 02:00:28;;;;;;;28.42;18.13;;;;;;;2.22;66.76;96120.94;5145891;23;20020;-84
2021/03/02 02:02:38;;;;;;;27.27;18.00;;;;;;;2.50;65.94;96123.03;5144242;23;20021;-83
2021/03/02 02:04:44;;;;;;;28.63;17.35;;;;;;;2.73;64.83;96129.66;5118268;23;20109;-86
2021/03/02 02:06:52;;;;;;;26.77;17.40;;;;;;;2.87;63.90;96131.56;5120213;23;20200;-84
2021/03/02 02:09:14;;;;;;;28.92;17.23;;;;;;;2.94;63.63;96121.72;5150367;23;20025;-84
2021/03/02 02:11:20;;;;;;;26.92;16.60;;;;;;;3.02;63.27;96122.19;5156441;23;20039;-84
2021/03/02 02:13:36;;;;;;;28.50;17.75;;;;;;;3.10;63.37;96122.63;5153890;23;20020;-71
2021/03/02 02:15:38;;;;;;;31.20;19.55;;;;;;;3.15;62.89;96120.63;5088554;23;20036;-71
2021/03/02 02:18:26;;;;;;;33.25;20.48;;;;;;;3.19;62.82;96113.56;5112612;23;20359;-70
2021/03/02 02:20:42;;;;;;;29.33;16.92;;;;;;;3.28;62.42;96118.25;5136853;23;20032;-71
2021/03/02 02:23:19;;;;;;;27.00;16.20;;;;;;;3.26;62.07;96112.31;5116082;23;20108;-71
2021/03/02 02:25:28;;;;;;;25.60;16.98;;;;;;;3.22;62.32;96119.38;5115391;23;20481;-70
2021/03/02 02:27:31;;;;;;;25.75;18.38;;;;;;;3.21;62.58;96117.72;5114642;23;20021;-70
2021/03/02 02:29:35;;;;;;;27.80;18.50;;;;;;;2.71;64.14;96134.06;5115170;23;20100;-71
2021/03/02 02:31:46;;;;;;;27.15;17.80;;;;;;;2.43;65.26;96140.59;5086660;23;20026;-70
2021/03/02 02:33:49;;;;;;;31.92;19.67;;;;;;;2.40;65.37;96134.72;5086518;23;20021;-70
2021/03/02 02:35:52;;;;;;;28.48;18.50;;;;;;;2.51;65.34;96135.03;5089397;23;20029;-71
2021/03/02 02:37:53;;;;;;;28.85;19.15;;;;;;;2.59;64.94;96138.09;5088338;23;20565;-71
2021/03/02 02:39:55;;;;;;;29.33;18.42;;;;;;;2.64;64.69;96137.84;5088760;23;20029;-71
2021/03/02 02:41:56;;;;;;;32.78;20.17;;;;;;;2.52;65.24;96135.88;5086628;23;20131;-70
2021/03/02 02:43:57;;;;;;;33.53;19.90;;;;;;;2.53;64.84;96135.78;5089027;23;20034;-71
2021/03/02 02:45:59;;;;;;;27.42;18.05;;;;;;;2.60;65.17;96131.16;5086166;23;20040;-70
2021/03/02 02:48:00;;;;;;;27.35;17.52;;;;;;;2.72;64.32;96133.16;5088550;23;20021;-71
2021/03/02 02:50:02;;;;;;;26.48;16.92;;;;;;;2.82;64.05;96129.19;5114583;23;20025;-71
2021/03/02 02:52:03;;;;;;;26.00;17.70;;;;;;;2.91;63.75;96134.84;5087828;23;20033;-71
2021/03/02 02:54:06;;;;;;;30.55;18.25;;;;;;;2.97;63.39;96135.34;5089213;23;20077;-70
2021/03/02 02:56:10;;;;;;;28.00;18.13;;;;;;;3.00;63.77;96127.41;5113860;23;20025;-71
2021/03/02 02:58:14;;;;;;;24.85;16.38;;;;;;;3.01;62.98;96139.47;5089109;23;20338;-70
2021/03/02 03:00:19;;;;;;;23.98;16.40;;;;;;;3.02;62.89;96138.53;5087808;23;20577;-69
2021/03/02 03:02:23;;;;;;;25.10;17.02;;;;;;;3.00;62.54;96147.31;5113156;23;20020;-70
2021/03/02 03:04:28;;;;;;;26.75;17.05;;;;;;;2.80;63.18;96145.72;5088951;23;20092;-70
2021/03/02 03:06:31;;;;;;;28.10;16.17;;;;;;;2.64;64.34;96150.78;5088168;23;20107;-71
2021/03/02 03:08:33;;;;;;;27.48;17.83;;;;;;;2.65;64.14;96140.38;5088562;23;20021;-71
2021/03/02 03:10:35;;;;;;;27.83;17.15;;;;;;;2.71;64.07;96148.75;5088950;23;20033;-70
2021/03/02 03:12:47;;;;;;;26.08;16.75;;;;;;;2.74;64.02;96146.84;5088362;23;20032;-71
2021/03/02 03:15:03;;;;;;;28.48;16.67;;;;;;;2.79;63.62;96150.03;5088092;23;20028;-70
2021/03/02 03:17:06;;;;;;;24.92;16.35;;;;;;;2.85;63.72;96144.56;5087847;23;20357;-70
2021/03/02 03:19:08;;;;;;;30.95;16.45;;;;;;;2.91;63.55;96147.78;5114577;23;20029;-70
2021/03/02 03:21:11;;;;;;;24.30;16.23;;;;;;;2.92;63.21;96146.84;5067903;23;20076;-70
2021/03/02 03:23:15;;;;;;;25.48;16.85;;;;;;;2.98;63.28;96154.31;5137148;23;20108;-71
2021/03/02 03:25:16;;;;;;;25.33;17.02;;;;;;;3.03;62.95;96154.91;5113205;23;20056;-71
2021/03/02 03:27:18;;;;;;;27.00;16.42;;;;;;;3.07;62.60;96140.91;5113193;23;20028;-70
2021/03/02 03:29:20;;;;;;;24.02;16.13;;;;;;;3.10;62.67;96145.94;5115925;23;20032;-71
2021/03/02 03:31:21;;;;;;;27.33;16.55;;;;;;;3.10;62.66;96153.69;5136261;23;20452;-70
2021/03/02 03:33:23;;;;;;;26.67;15.85;;;;;;;3.13;62.32;96158.72;5113236;23;20024;-70
2021/03/02 03:35:25;;;;;;;27.35;16.33;;;;;;;3.09;62.38;96152.00;5139162;23;20020;-70
2021/03/02 03:37:27;;;;;;;26.52;17.33;;;;;;;3.12;62.55;96158.78;5112776;23;20027;-70
2021/03/02 03:39:28;;;;;;;27.98;17.67;;;;;;;3.08;62.92;96160.72;5112433;23;20033;-70
2021/03/02 03:41:29;;;;;;;28.17;18.92;;;;;;;3.06;63.04;96158.19;5139284;23;20195;-70
2021/03/02 03:43:30;;;;;;;26.55;18.38;;;;;;;3.05;63.12;96166.03;5138217;23;20275;-71
2021/03/02 03:45:31;;;;;;;26.52;18.25;;;;;;;3.04;63.34;96164.38;5112320;23;20025;-71
2021/03/02 03:47:34;;;;;;;27.23;18.50;;;;;;;3.04;63.10;96166.94;5136926;23;20027;-69
2021/03/02 03:49:35;;;;;;;29.98;18.45;;;;;;;3.09;62.92;96175.31;5113730;23;20029;-69
2021/03/02 03:51:38;;;;;;;30.85;17.70;;;;;;;3.13;62.72;96174.25;5113313;23;20103;-70
2021/03/02 03:53:39;;;;;;;32.13;18.02;;;;;;;3.08;62.82;96165.88;5112606;23;20064;-70
2021/03/02 03:55:43;;;;;;;29.73;18.55;;;;;;;3.05;62.75;96166.88;5139476;23;20071;-71
2021/03/02 03:57:45;;;;;;;30.00;18.13;;;;;;;2.93;62.93;96169.25;5112446;23;20032;-70
2021/03/02 03:59:47;;;;;;;27.95;17.88;;;;;;;2.91;63.03;96169.31;5113253;23;20434;-70
2021/03/02 04:01:48;;;;;;;33.38;18.08;;;;;;;2.85;63.47;96165.25;5110259;23;20233;-70
2021/03/02 04:03:50;;;;;;;29.42;17.90;;;;;;;2.87;63.38;96167.78;5112180;23;20100;-69
2021/03/02 04:05:51;;;;;;;29.05;18.08;;;;;;;2.84;63.05;96163.59;5139259;23;20020;-69
2021/03/02 04:07:53;;;;;;;26.42;17.02;;;;;;;2.87;63.39;96167.78;5112128;23;20593;-70
2021/03/02 04:09:54;;;;;;;24.15;17.77;;;;;;;2.82;63.00;96168.03;5112822;23;20079;-68
2021/03/02 04:11:55;;;;;;;29.63;18.02;;;;;;;2.85;63.16;96167.84;5122853;23;20379;-85
2021/03/02 04:13:57;;;;;;;29.05;17.90;;;;;;;2.91;62.93;96169.31;5117832;23;20017;-85
2021/03/02 04:15:59;;;;;;;34.47;19.40;;;;;;;2.98;63.10;96165.50;5142661;23;20056;-84
2021/03/02 04:18:01;;;;;;;27.73;17.63;;;;;;;3.03;62.71;96173.03;5117191;23;20096;-85
2021/03/02 04:20:04;;;;;;;27.55;19.02;;;;;;;3.03;62.70;96168.72;5143890;23;20346;-84
2021/03/02 04:22:05;;;;;;;26.35;18.63;;;;;;;3.01;62.53;96167.94;5126822;23;20031;-83
2021/03/02 04:24:07;;;;;;;27.23;18.42;;;;;;;3.00;62.84;96158.50;5094090;23;20069;-85
2021/03/02 04:26:09;;;;;;;32.05;18.50;;;;;;;2.97;63.13;96163.84;5120170;23;20025;-84
2021/03/02 04:28:10;;;;;;;27.58;18.33;;;;;;;2.96;62.97;96166.50;5121102;23;20025;-83
2021/03/02 04:30:12;;;;;;;31.60;20.15;;;;;;;3.00;62.71;96168.00;5120426;23;20025;-85
2021/03/02 04:32:13;;;;;;;28.33;19.17;;;;;;;2.96;62.77;96169.06;5093020;23;20100;-84
2021/03/02 04:34:14;;;;;;;26.52;18.90;;;;;;;2.79;63.49;96168.16;5118604;23;20029;-83
2021/03/02 04:36:16;;;;;;;28.30;18.60;;;;;;;2.58;63.66;96169.19;5118896;23;20045;-84
2021/03/02 04:38:17;;;;;;;25.90;17.67;;;;;;;2.45;64.41;96174.13;5092188;23;20423;-82
2021/03/02 04:40:19;;;;;;;25.77;16.42;;;;;;;2.15;64.61;96173.81;5118511;23;20061;-83
2021/03/02 04:42:20;;;;;;;33.25;16.50;;;;;;;2.00;65.32;96175.38;5095965;23;20025;-85
2021/03/02 04:44:21;;;;;;;25.33;15.93;;;;;;;1.56;66.58;96179.06;5133351;23;20055;-83
2021/03/02 04:46:22;;;;;;;25.83;15.65;;;;;;;1.17;68.39;96181.66;5093767;23;20022;-85
2021/03/02 04:48:24;;;;;;;24.60;15.68;;;;;;;1.28;67.85;96182.00;5066718;23;20359;-86
2021/03/02 04:50:25;;;;;;;29.60;16.30;;;;;;;1.53;67.27;96176.63;5067899;23;20022;-86
2021/03/02 04:52:26;;;;;;;26.67;17.05;;;;;;;1.75;66.94;96173.91;5118671;23;20027;-85
2021/03/02 04:54:27;;;;;;;35.40;20.02;;;;;;;2.00;66.58;96172.78;5119488;23;20029;-83
2021/03/02 04:56:29;;;;;;;25.70;14.90;;;;;;;2.12;64.85;96173.97;5120038;23;20021;-84
2021/03/02 04:58:30;;;;;;;30.73;17.50;;;;;;;1.93;66.06;96174.81;5122324;23;20378;-86
2021/03/02 05:00:31;;;;;;;26.25;16.52;;;;;;;1.57;66.29;96183.34;5096590;23;20051;-84
2021/03/02 05:02:32;;;;;;;28.83;14.93;;;;;;;1.09;67.29;96187.13;5093441;23;20487;-84
2021/03/02 05:04:33;;;;;;;22.92;14.13;;;;;;;1.18;67.60;96185.88;5119581;23;20017;-85
2021/03/02 05:06:35;;;;;;;21.35;12.70;;;;;;;1.41;67.18;96188.31;5093119;23;20021;-86
2021/03/02 05:08:36;;;;;;;20.27;13.27;;;;;;;1.64;66.40;96182.16;5119583;23;20029;-85
2021/03/02 05:10:37;;;;;;;24.05;13.73;;;;;;;1.87;65.92;96179.44;5120082;23;20029;-84
2021/03/02 05:12:38;;;;;;;24.38;13.80;;;;;;;2.04;65.27;96176.91;5093627;23;20025;-84
2021/03/02 05:14:40;;;;;;;21.60;13.68;;;;;;;2.18;64.61;96184.03;5118991;23;20032;-84
2021/03/02 05:16:41;;;;;;;21.20;13.55;;;;;;;2.31;64.02;96186.91;5095039;23;20355;-89
2021/03/02 05:18:43;;;;;;;21.05;13.50;;;;;;;2.40;64.18;96183.88;5119767;23;20025;-84
2021/03/02 05:20:44;;;;;;;22.17;15.80;;;;;;;2.51;63.55;96180.75;5120929;23;20031;-85
2021/03/02 05:22:46;;;;;;;23.35;14.95;;;;;;;2.58;63.33;96183.00;5121139;23;20032;-85
2021/03/02 05:24:47;;;;;;;22.40;14.27;;;;;;;2.66;63.03;96186.03;5120266;23;20455;-85
2021/03/02 05:26:48;;;;;;;30.40;17.58;;;;;;;2.69;62.69;96185.06;5122125;23;20021;-86
2021/03/02 05:28:50;;;;;;;33.90;16.83;;;;;;;2.70;63.04;96191.91;5120798;23;20101;-85
2021/03/02 05:30:53;;;;;;;36.67;24.38;;;;;;;2.71;62.77;96187.56;5122360;23;20490;-85
2021/03/02 05:32:54;;;;;;;31.13;19.77;;;;;;;2.75;62.63;96194.25;5120353;23;20404;-87
2021/03/02 05:34:56;;;;;;;36.38;22.48;;;;;;;2.80;62.81;96198.31;5122907;23;20451;-87
2021/03/02 05:36:58;;;;;;;32.33;21.85;;;;;;;2.81;62.42;96196.56;5071226;23;20037;-84
2021/03/02 05:38:59;;;;;;;34.63;24.42;;;;;;;2.86;62.48;96197.16;5122187;23;20095;-87
2021/03/02 05:41:00;;;;;;;42.55;26.65;;;;;;;2.93;62.28;96190.78;5120359;23;20051;-86
2021/03/02 05:43:02;;;;;;;42.63;29.20;;;;;;;2.87;61.90;96194.50;5123620;23;20027;-86
2021/03/02 05:45:04;;;;;;;44.97;32.80;;;;;;;2.85;62.34;96192.91;5126437;23;20025;-87
2021/03/02 05:47:05;;;;;;;46.88;32.75;;;;;;;2.88;62.43;96200.50;5100695;23;20026;-87
2021/03/02 05:49:09;;;;;;;44.83;31.70;;;;;;;2.92;62.34;96196.03;5098215;23;20032;-87
2021/03/02 05:51:11;;;;;;;38.58;26.42;;;;;;;2.97;61.98;96196.63;5121794;23;20060;-84
2021/03/02 05:53:13;;;;;;;27.02;18.77;;;;;;;3.07;61.76;96203.03;5121047;23;20027;-86
2021/03/02 05:55:14;;;;;;;24.88;17.45;;;;;;;3.11;61.56;96203.72;5096866;23;20025;-85
2021/03/02 05:57:15;;;;;;;27.50;17.85;;;;;;;3.17;61.26;96204.25;5097857;23;20029;-84
2021/03/02 05:59:17;;;;;;;36.63;22.10;;;;;;;3.18;61.36;96203.31;5102898;23;20021;-85
2021/03/02 06:01:18;;;;;;;30.65;21.00;;;;;;;3.18;61.37;96205.91;5108445;23;20181;-88
2021/03/02 06:03:20;;;;;;;31.40;21.38;;;;;;;3.16;61.38;96210.38;5071461;23;20006;-87
2021/03/02 06:05:21;;;;;;;29.95;19.65;;;;;;;3.22;61.30;96210.03;5120042;23;20020;-87
2021/03/02 06:07:23;;;;;;;33.95;22.42;;;;;;;3.36;61.33;96203.34;5094099;23;20513;-88
2021/03/02 06:09:24;;;;;;;39.55;22.83;;;;;;;3.44;60.86;96204.63;5069313;23;20097;-86
2021/03/02 06:11:30;;;;;;;38.60;23.23;;;;;;;3.40;61.16;96207.41;5120541;23;20375;-86
2021/03/02 06:13:31;;;;;;;40.33;23.67;;;;;;;3.44;60.77;96208.94;5120192;23;20024;-85
2021/03/02 06:15:32;;;;;;;37.08;24.48;;;;;;;3.45;60.85;96213.22;5119595;23;20025;-86
2021/03/02 06:17:34;;;;;;;37.45;23.83;;;;;;;3.47;61.06;96211.38;5119603;23;20024;-86
2021/03/02 06:19:45;;;;;;;38.03;25.92;;;;;;;3.57;60.62;96214.34;5120980;23;20028;-87
2021/03/02 06:21:46;;;;;;;39.15;26.27;;;;;;;3.74;62.26;96216.88;5108998;23;20024;-89
2021/03/02 06:23:54;;;;;;;40.25;26.08;;;;;;;3.84;60.09;96212.91;5120402;23;20031;-87
2021/03/02 06:25:57;;;;;;;34.83;23.02;;;;;;;3.87;60.45;96211.91;5121581;23;20525;-85
2021/03/02 06:27:58;;;;;;;43.47;25.00;;;;;;;3.93;60.22;96211.56;5095151;23;20039;-85
2021/03/02 06:30:13;;;;;;;41.95;23.25;;;;;;;4.01;59.85;96209.41;5070686;23;20026;-86
2021/03/02 06:32:14;;;;;;;38.05;21.98;;;;;;;4.09;60.48;96222.00;5095968;23;20025;-87
2021/03/02 06:34:18;;;;;;;38.42;21.90;;;;;;;4.18;60.82;96218.06;5123304;23;20021;-85
2021/03/02 06:36:19;;;;;;;32.65;20.23;;;;;;;4.08;60.04;96217.69;5123384;23;20025;-83
2021/03/02 06:38:46;;;;;;;38.22;20.42;;;;;;;3.93;60.71;96215.94;5097805;23;20025;-86
2021/03/02 06:40:48;;;;;;;28.55;19.00;;;;;;;3.88;61.03;96221.38;5093582;23;20025;-86
2021/03/02 06:42:51;;;;;;;40.17;20.73;;;;;;;3.81;61.20;96214.84;5125453;23;20474;-86
2021/03/02 06:45:04;;;;;;;63.05;36.70;;;;;;;3.91;62.11;96213.41;5098507;23;20052;-87
2021/03/02 06:47:05;;;;;;;95.47;53.35;;;;;;;4.07;61.16;96219.47;5120574;23;20052;-88
2021/03/02 06:49:07;;;;;;;37.47;21.45;;;;;;;4.18;60.64;96224.06;5121749;23;20028;-84
2021/03/02 06:51:25;;;;;;;41.90;22.15;;;;;;;4.23;59.68;96227.25;5094197;23;20032;-86
2021/03/02 06:53:26;;;;;;;34.60;20.30;;;;;;;4.05;59.81;96220.47;5118762;23;20021;-86
2021/03/02 06:55:28;;;;;;;43.22;22.42;;;;;;;4.14;60.48;96230.34;5120358;23;20033;-88
2021/03/02 06:57:30;;;;;;;43.53;20.88;;;;;;;4.27;60.12;96225.34;5115600;23;20098;-73
2021/03/02 06:59:31;;;;;;;37.28;20.33;;;;;;;4.46;60.50;96220.81;5114775;23;20059;-73
2021/03/02 07:01:39;;;;;;;72.20;22.98;;;;;;;4.73;60.86;96217.59;5086929;23;20034;-71
2021/03/02 07:03:41;;;;;;;66.85;23.80;;;;;;;4.87;59.32;96222.88;5089044;23;20197;-72
2021/03/02 07:05:48;;;;;;;48.47;22.58;;;;;;;4.88;57.64;96211.56;5088804;23;20022;-71
2021/03/02 07:07:57;;;;;;;44.15;24.95;;;;;;;4.92;58.51;96210.44;5114379;23;20056;-72
2021/03/02 07:10:00;;;;;;;42.28;25.27;;;;;;;5.08;58.71;96212.19;5114888;23;20104;-73
2021/03/02 07:12:02;;;;;;;42.92;26.33;;;;;;;5.21;58.30;96213.16;5087964;23;20040;-73
2021/03/02 07:14:08;;;;;;;46.30;27.45;;;;;;;5.31;57.84;96203.03;5087898;23;20018;-73
2021/03/02 07:16:10;;;;;;;47.55;26.67;;;;;;;5.39;57.45;96210.41;5113057;23;20021;-71
2021/03/02 07:18:16;;;;;;;41.50;26.92;;;;;;;5.49;56.96;96212.38;5089655;23;20538;-74
2021/03/02 07:20:18;;;;;;;45.75;26.27;;;;;;;5.43;56.59;96202.31;5114789;23;20021;-73
2021/03/02 07:22:20;;;;;;;72.85;27.48;;;;;;;5.50;56.33;96205.38;5113399;23;20027;-71
2021/03/02 07:24:26;;;;;;;46.15;25.75;;;;;;;5.18;56.21;96202.09;5139072;23;20017;-73
2021/03/02 07:26:28;;;;;;;45.17;26.13;;;;;;;5.16;57.34;96207.34;5112935;23;20051;-73
2021/03/02 07:28:33;;;;;;;46.72;25.33;;;;;;;5.32;57.03;96204.72;5140082;23;20344;-72
2021/03/02 07:30:35;;;;;;;47.30;25.67;;;;;;;5.52;56.60;96211.34;5087771;23;20128;-73
2021/03/02 07:32:40;;;;;;;43.95;25.20;;;;;;;5.68;55.94;96206.91;5138833;23;20021;-72
2021/03/02 07:34:46;;;;;;;43.95;22.67;;;;;;;5.36;55.45;96210.59;5113017;23;20071;-73
2021/03/02 07:36:47;;;;;;;34.88;23.60;;;;;;;5.49;55.35;96211.53;5113412;23;20352;-71
2021/03/02 07:39:11;;;;;;;40.40;23.35;;;;;;;5.71;54.55;96214.50;5139007;23;20027;-71
2021/03/02 07:41:33;;;;;;;40.90;22.65;;;;;;;5.89;54.12;96211.72;5087355;23;20025;-70
2021/03/02 07:43:36;;;;;;;39.92;24.23;;;;;;;6.07;53.40;96209.81;5139694;23;20021;-72
2021/03/02 07:45:38;;;;;;;43.30;23.02;;;;;;;6.04;53.03;96207.38;5111342;23;20033;-71
2021/03/02 07:47:56;;;;;;;41.30;23.73;;;;;;;5.59;54.01;96222.19;5139445;23;20027;-74
2021/03/02 07:50:18;;;;;;;45.25;23.52;;;;;;;5.41;54.74;96209.38;5113799;23;20462;-72
2021/03/02 07:52:20;;;;;;;38.75;23.08;;;;;;;5.00;56.07;96214.38;5113101;23;20024;-74
2021/03/02 07:54:21;;;;;;;46.97;23.73;;;;;;;4.85;57.00;96209.13;5113685;23;20348;-74
2021/03/02 07:56:23;;;;;;;38.25;24.02;;;;;;;4.86;56.83;96208.22;5139076;23;20075;-75
2021/03/02 07:58:25;;;;;;;46.78;22.58;;;;;;;4.79;56.64;96203.44;5138846;23;20028;-73
2021/03/02 08:00:27;;;;;;;36.05;20.92;;;;;;;4.80;56.82;96208.56;5138516;23;20024;-71
2021/03/02 08:02:28;;;;;;;35.13;17.73;;;;;;;5.02;55.65;96207.34;5138780;23;20028;-71
2021/03/02 08:04:29;;;;;;;23.30;14.88;;;;;;;4.89;55.10;96202.84;5138516;23;20027;-70
2021/03/02 08:06:30;;;;;;;31.08;16.77;;;;;;;4.81;55.84;96196.41;5139954;23;20024;-72
2021/03/02 08:08:32;;;;;;;30.42;19.17;;;;;;;4.63;56.14;96201.72;5138551;23;20031;-72
2021/03/02 08:10:35;;;;;;;31.52;17.15;;;;;;;4.71;56.69;96196.06;5138668;23;20021;-72
2021/03/02 08:12:37;;;;;;;35.65;20.80;;;;;;;4.87;56.90;96199.50;5087903;23;20021;-72
2021/03/02 08:14:38;;;;;;;32.75;22.00;;;;;;;4.62;57.34;96204.38;5139532;23;20098;-73
2021/03/02 08:17:00;;;;;;;32.80;21.40;;;;;;;4.58;57.21;96201.16;5085640;23;20021;-72
2021/03/02 08:19:39;;;;;;;44.28;23.50;;;;;;;4.80;57.18;96198.19;5139940;23;20024;-75
2021/03/02 08:21:41;;;;;;;35.17;22.35;;;;;;;5.04;56.04;96200.31;5112420;23;20021;-72
2021/03/02 08:23:53;;;;;;;37.92;23.67;;;;;;;5.37;55.17;96196.66;5138742;23;20489;-71
2021/03/02 08:26:30;;;;;;;36.67;21.85;;;;;;;5.16;55.33;96198.75;5112176;23;20385;-72
2021/03/02 08:28:32;;;;;;;34.50;21.75;;;;;;;5.27;54.59;96194.59;5139583;23;20024;-71
2021/03/02 08:30:38;;;;;;;38.30;20.55;;;;;;;5.63;54.03;96188.13;5138036;23;20107;-71
2021/03/02 08:32:42;;;;;;;37.33;20.50;;;;;;;5.44;53.53;96198.81;5138608;23;20042;-72
2021/03/02 08:34:46;;;;;;;28.15;17.83;;;;;;;5.54;52.92;96196.50;5113541;23;20017;-72
2021/03/02 08:36:51;;;;;;;27.27;18.67;;;;;;;5.65;52.79;96198.44;5112872;23;20060;-73
2021/03/02 08:38:52;;;;;;;33.08;19.20;;;;;;;5.75;52.20;96192.59;5112158;23;20535;-72
2021/03/02 08:40:53;;;;;;;26.23;16.67;;;;;;;6.00;51.39;96191.16;5138961;23;20334;-72
2021/03/02 08:43:09;;;;;;;23.30;15.90;;;;;;;6.27;50.00;96182.56;5111998;23;20350;-72
2021/03/02 08:45:11;;;;;;;25.98;17.27;;;;;;;6.62;50.19;96182.06;5138867;23;20072;-73
2021/03/02 08:47:12;;;;;;;28.65;16.95;;;;;;;6.86;49.40;96177.03;5086171;23;20028;-72
2021/03/02 08:49:14;;;;;;;26.63;17.40;;;;;;;6.69;48.29;96176.38;5112466;23;20021;-72
2021/03/02 08:51:19;;;;;;;31.27;18.70;;;;;;;6.58;48.91;96171.00;5112654;23;20024;-72
2021/03/02 08:53:43;;;;;;;26.65;15.60;;;;;;;6.28;48.77;96174.66;5138223;23;20021;-71
2021/03/02 08:55:44;;;;;;;26.52;15.88;;;;;;;6.41;48.48;96172.13;5113411;23;20060;-71
2021/03/02 08:57:46;;;;;;;18.83;9.82;;;;;;;6.44;46.88;96173.69;5138332;23;20031;-72
2021/03/02 08:59:47;;;;;;;26.70;14.55;;;;;;;6.29;47.86;96170.28;5112949;23;20021;-72
2021/03/02 09:01:54;;;;;;;21.83;13.52;;;;;;;6.40;47.93;96170.44;5136213;23;20035;-73
2021/03/02 09:04:06;;;;;;;23.05;14.00;;;;;;;6.66;46.98;96167.94;5138167;23;20104;-73
2021/03/02 09:06:22;;;;;;;26.10;13.88;;;;;;;6.81;46.50;96166.94;5139313;23;20445;-74
2021/03/02 09:08:23;;;;;;;20.55;12.60;;;;;;;7.11;46.28;96171.06;5112605;23;20021;-71
2021/03/02 09:10:24;;;;;;;16.00;9.73;;;;;;;7.37;44.68;96169.31;5137816;23;20509;-71
2021/03/02 09:12:26;;;;;;;22.77;9.93;;;;;;;7.63;44.02;96164.94;5137910;23;20024;-72
2021/03/02 09:14:36;;;;;;;12.40;7.72;;;;;;;7.78;43.24;96169.09;5113210;23;20021;-70
2021/03/02 09:16:39;;;;;;;14.90;7.53;;;;;;;8.15;42.91;96171.78;5135954;23;20025;-73
2021/03/02 09:18:40;;;;;;;14.82;9.25;;;;;;;8.48;42.39;96164.31;5139302;23;20362;-72
2021/03/02 09:20:51;;;;;;;10.70;6.93;;;;;;;8.52;40.42;96171.81;5137998;23;20025;-73
2021/03/02 09:22:52;;;;;;;11.00;6.75;;;;;;;8.52;40.05;96165.75;5113675;23;20076;-72
2021/03/02 09:24:56;;;;;;;9.40;6.70;;;;;;;7.64;41.46;96176.22;5114517;23;20021;-74
2021/03/02 09:27:01;;;;;;;9.15;6.68;;;;;;;7.23;42.41;96183.28;5114553;23;20360;-71
2021/03/02 09:29:04;;;;;;;9.07;6.68;;;;;;;7.35;41.98;96174.63;5117169;23;20073;-86
2021/03/02 09:31:05;;;;;;;13.32;8.55;;;;;;;7.36;42.66;96178.94;5095409;23;20079;-89
2021/03/02 09:33:06;;;;;;;14.20;8.15;;;;;;;7.65;42.05;96170.88;5123230;23;20124;-86
2021/03/02 09:35:10;;;;;;;13.68;6.10;;;;;;;7.65;41.64;96173.50;5094489;23;20021;-86
2021/03/02 09:37:19;;;;;;;8.35;5.70;;;;;;;7.56;42.04;96176.75;5095033;23;20250;-84